sensor_id;sensor_type;location;lat;lon;timestamp;pressure;altitude;pressure_sealevel;temperature;humidity
67987;BME280;54767;53.800;15.956;2023-01-24T00:01:24;102692.66;;;-0.19;72.86
67987;BME280;54767;53.800;15.956;2023-01-24T00:03:53;102688.62;;;-0.16;73.03
67987;BME280;54767;53.800;15.956;2023-01-24T00:06:21;102686.09;;;-0.14;72.97
67987;BME280;54767;53.800;15.956;2023-01-24T00:08:49;102692.48;;;-0.11;73.04
67987;BME280;54767;53.800;15.956;2023-01-24T00:11:17;102690.05;;;-0.10;72.70
67987;BME280;54767;53.800;15.956;2023-01-24T00:13:46;102688.36;;;-0.07;72.96
67987;BME280;54767;53.800;15.956;2023-01-24T00:16:20;102687.58;;;-0.04;72.59
67987;BME280;54767;53.800;15.956;2023-01-24T00:18:49;102689.69;;;-0.06;72.78
67987;BME280;54767;53.800;15.956;2023-01-24T00:21:21;102688.09;;;-0.08;72.41
67987;BME280;54767;53.800;15.956;2023-01-24T00:23:52;102689.89;;;-0.11;72.65
67987;BME280;54767;53.800;15.956;2023-01-24T00:26:23;102690.52;;;-0.12;73.06
67987;BME280;54767;53.800;15.956;2023-01-24T00:28:52;102698.11;;;-0.12;72.73
67987;BME280;54767;53.800;15.956;2023-01-24T00:31:21;102696.64;;;-0.13;72.69
67987;BME280;54767;53.800;15.956;2023-01-24T00:33:49;102698.69;;;-0.13;72.98
67987;BME280;54767;53.800;15.956;2023-01-24T00:36:18;102704.70;;;-0.11;73.22
67987;BME280;54767;53.800;15.956;2023-01-24T00:38:46;102700.71;;;-0.08;72.59
67987;BME280;54767;53.800;15.956;2023-01-24T00:41:15;102696.92;;;-0.04;72.82
67987;BME280;54767;53.800;15.956;2023-01-24T00:43:43;102697.19;;;-0.01;72.87
67987;BME280;54767;53.800;15.956;2023-01-24T00:46:12;102695.71;;;0.01;73.00
67987;BME280;54767;53.800;15.956;2023-01-24T00:48:40;102697.77;;;-0.02;72.73
67987;BME280;54767;53.800;15.956;2023-01-24T00:51:09;102699.09;;;-0.05;72.74
67987;BME280;54767;53.800;15.956;2023-01-24T00:53:39;102701.60;;;-0.09;72.86
67987;BME280;54767;53.800;15.956;2023-01-24T00:56:08;102705.41;;;-0.15;72.90
67987;BME280;54767;53.800;15.956;2023-01-24T00:58:37;102706.09;;;-0.19;72.76
67987;BME280;54767;53.800;15.956;2023-01-24T01:01:05;102700.77;;;-0.21;73.32
67987;BME280;54767;53.800;15.956;2023-01-24T01:03:34;102697.00;;;-0.20;73.25
67987;BME280;54767;53.800;15.956;2023-01-24T01:06:05;102698.75;;;-0.18;73.19
67987;BME280;54767;53.800;15.956;2023-01-24T01:08:34;102702.34;;;-0.15;72.97
67987;BME280;54767;53.800;15.956;2023-01-24T01:11:03;102704.05;;;-0.11;73.33
67987;BME280;54767;53.800;15.956;2023-01-24T01:13:31;102701.23;;;-0.10;73.35
67987;BME280;54767;53.800;15.956;2023-01-24T01:16:06;102701.70;;;-0.10;73.00
67987;BME280;54767;53.800;15.956;2023-01-24T01:18:34;102691.56;;;-0.16;72.98
67987;BME280;54767;53.800;15.956;2023-01-24T01:21:04;102689.88;;;-0.20;73.29
67987;BME280;54767;53.800;15.956;2023-01-24T01:23:33;102687.77;;;-0.20;73.37
67987;BME280;54767;53.800;15.956;2023-01-24T01:26:03;102694.57;;;-0.19;73.18
67987;BME280;54767;53.800;15.956;2023-01-24T01:28:32;102687.94;;;-0.16;73.42
67987;BME280;54767;53.800;15.956;2023-01-24T01:31:00;102687.45;;;-0.14;73.25
67987;BME280;54767;53.800;15.956;2023-01-24T01:33:29;102690.41;;;-0.11;73.34
67987;BME280;54767;53.800;15.956;2023-01-24T01:35:57;102688.71;;;-0.07;73.51
67987;BME280;54767;53.800;15.956;2023-01-24T01:38:26;102682.67;;;-0.05;72.98
67987;BME280;54767;53.800;15.956;2023-01-24T01:40:56;102685.39;;;-0.04;73.44
67987;BME280;54767;53.800;15.956;2023-01-24T01:43:28;102682.83;;;-0.01;73.35
67987;BME280;54767;53.800;15.956;2023-01-24T01:46:17;102689.03;;;0.01;73.70
67987;BME280;54767;53.800;15.956;2023-01-24T01:48:53;102695.59;;;0.01;73.10
67987;BME280;54767;53.800;15.956;2023-01-24T01:51:27;102702.70;;;-0.00;72.82
67987;BME280;54767;53.800;15.956;2023-01-24T01:54:09;102702.75;;;0.03;72.83
67987;BME280;54767;53.800;15.956;2023-01-24T01:56:45;102699.44;;;0.04;72.90
67987;BME280;54767;53.800;15.956;2023-01-24T01:59:20;102699.81;;;0.02;72.84
67987;BME280;54767;53.800;15.956;2023-01-24T02:01:52;102694.11;;;0.02;72.94
67987;BME280;54767;53.800;15.956;2023-01-24T02:04:27;102699.08;;;0.02;72.88
67987;BME280;54767;53.800;15.956;2023-01-24T02:07:22;102697.79;;;-0.02;72.85
67987;BME280;54767;53.800;15.956;2023-01-24T02:09:53;102696.26;;;-0.07;72.97
67987;BME280;54767;53.800;15.956;2023-01-24T02:12:34;102698.50;;;-0.11;72.85
67987;BME280;54767;53.800;15.956;2023-01-24T02:15:12;102694.90;;;-0.15;72.57
67987;BME280;54767;53.800;15.956;2023-01-24T02:18:00;102694.45;;;-0.18;72.87
67987;BME280;54767;53.800;15.956;2023-01-24T02:26:21;102694.65;;;-0.10;73.16
67987;BME280;54767;53.800;15.956;2023-01-24T02:29:04;102688.42;;;-0.08;73.18
67987;BME280;54767;53.800;15.956;2023-01-24T02:34:20;102676.63;;;-0.14;73.18
67987;BME280;54767;53.800;15.956;2023-01-24T02:36:53;102674.08;;;-0.13;73.40
67987;BME280;54767;53.800;15.956;2023-01-24T02:39:33;102673.98;;;-0.12;72.86
67987;BME280;54767;53.800;15.956;2023-01-24T02:42:09;102675.15;;;-0.13;72.90
67987;BME280;54767;53.800;15.956;2023-01-24T02:44:46;102675.88;;;-0.10;73.34
67987;BME280;54767;53.800;15.956;2023-01-24T02:47:16;102677.42;;;-0.06;73.09
67987;BME280;54767;53.800;15.956;2023-01-24T02:49:45;102677.79;;;-0.04;73.16
67987;BME280;54767;53.800;15.956;2023-01-24T02:52:13;102676.95;;;-0.02;73.11
67987;BME280;54767;53.800;15.956;2023-01-24T02:55:00;102668.21;;;-0.03;73.07
67987;BME280;54767;53.800;15.956;2023-01-24T02:57:28;102670.27;;;-0.07;72.87
67987;BME280;54767;53.800;15.956;2023-01-24T03:00:15;102670.20;;;-0.14;72.78
67987;BME280;54767;53.800;15.956;2023-01-24T03:02:44;102669.89;;;-0.18;73.26
67987;BME280;54767;53.800;15.956;2023-01-24T03:05:12;102664.83;;;-0.21;73.17
67987;BME280;54767;53.800;15.956;2023-01-24T03:07:41;102663.74;;;-0.21;72.87
67987;BME280;54767;53.800;15.956;2023-01-24T03:10:14;102673.20;;;-0.19;73.23
67987;BME280;54767;53.800;15.956;2023-01-24T03:12:43;102674.20;;;-0.18;73.39
67987;BME280;54767;53.800;15.956;2023-01-24T03:15:30;102677.13;;;-0.14;73.16
67987;BME280;54767;53.800;15.956;2023-01-24T03:18:17;102676.64;;;-0.14;73.05
67987;BME280;54767;53.800;15.956;2023-01-24T03:21:04;102674.85;;;-0.16;73.16
67987;BME280;54767;53.800;15.956;2023-01-24T03:23:51;102673.82;;;-0.20;72.97
67987;BME280;54767;53.800;15.956;2023-01-24T03:26:38;102672.73;;;-0.23;73.23
67987;BME280;54767;53.800;15.956;2023-01-24T03:29:25;102673.79;;;-0.25;72.97
67987;BME280;54767;53.800;15.956;2023-01-24T03:32:12;102680.21;;;-0.28;72.90
67987;BME280;54767;53.800;15.956;2023-01-24T03:34:59;102679.52;;;-0.26;73.27
67987;BME280;54767;53.800;15.956;2023-01-24T03:37:27;102679.75;;;-0.24;73.27
67987;BME280;54767;53.800;15.956;2023-01-24T03:40:15;102687.91;;;-0.21;73.34
67987;BME280;54767;53.800;15.956;2023-01-24T03:42:43;102690.30;;;-0.20;73.30
67987;BME280;54767;53.800;15.956;2023-01-24T03:45:36;102692.40;;;-0.20;73.38
67987;BME280;54767;53.800;15.956;2023-01-24T03:48:08;102691.82;;;-0.19;73.37
67987;BME280;54767;53.800;15.956;2023-01-24T03:50:42;102689.42;;;-0.17;73.31
67987;BME280;54767;53.800;15.956;2023-01-24T03:53:31;102695.09;;;-0.15;73.43
67987;BME280;54767;53.800;15.956;2023-01-24T03:56:00;102696.23;;;-0.12;74.01
67987;BME280;54767;53.800;15.956;2023-01-24T03:58:30;102691.39;;;-0.08;73.83
67987;BME280;54767;53.800;15.956;2023-01-24T04:00:59;102686.84;;;-0.03;73.63
67987;BME280;54767;53.800;15.956;2023-01-24T04:03:27;102676.64;;;-0.01;73.67
67987;BME280;54767;53.800;15.956;2023-01-24T04:05:56;102671.80;;;0.03;73.86
67987;BME280;54767;53.800;15.956;2023-01-24T04:08:24;102673.13;;;0.06;74.04
67987;BME280;54767;53.800;15.956;2023-01-24T04:10:55;102661.90;;;0.10;74.02
67987;BME280;54767;53.800;15.956;2023-01-24T04:13:24;102656.19;;;0.12;73.80
67987;BME280;54767;53.800;15.956;2023-01-24T04:15:52;102655.55;;;0.12;74.11
67987;BME280;54767;53.800;15.956;2023-01-24T04:18:20;102656.18;;;0.14;73.86
67987;BME280;54767;53.800;15.956;2023-01-24T04:20:49;102655.30;;;0.17;74.19
67987;BME280;54767;53.800;15.956;2023-01-24T04:23:17;102655.66;;;0.22;73.70
67987;BME280;54767;53.800;15.956;2023-01-24T04:25:49;102657.24;;;0.22;73.54
67987;BME280;54767;53.800;15.956;2023-01-24T04:28:23;102652.11;;;0.23;73.53
67987;BME280;54767;53.800;15.956;2023-01-24T04:30:59;102656.26;;;0.23;73.36
67987;BME280;54767;53.800;15.956;2023-01-24T04:33:28;102660.70;;;0.22;73.65
67987;BME280;54767;53.800;15.956;2023-01-24T04:35:59;102654.47;;;0.24;73.83
67987;BME280;54767;53.800;15.956;2023-01-24T04:38:27;102651.83;;;0.23;73.55
67987;BME280;54767;53.800;15.956;2023-01-24T04:41:02;102649.65;;;0.20;73.70
67987;BME280;54767;53.800;15.956;2023-01-24T04:43:30;102652.61;;;0.16;73.36
67987;BME280;54767;53.800;15.956;2023-01-24T04:45:58;102654.32;;;0.16;73.35
67987;BME280;54767;53.800;15.956;2023-01-24T04:48:26;102652.31;;;0.17;73.08
67987;BME280;54767;53.800;15.956;2023-01-24T04:51:01;102653.65;;;0.14;73.20
67987;BME280;54767;53.800;15.956;2023-01-24T04:53:29;102652.45;;;0.12;73.36
67987;BME280;54767;53.800;15.956;2023-01-24T04:56:01;102652.70;;;0.13;73.39
67987;BME280;54767;53.800;15.956;2023-01-24T04:58:31;102649.27;;;0.15;73.61
67987;BME280;54767;53.800;15.956;2023-01-24T05:00:59;102653.55;;;0.17;73.77
67987;BME280;54767;53.800;15.956;2023-01-24T05:03:30;102652.88;;;0.17;73.84
67987;BME280;54767;53.800;15.956;2023-01-24T05:05:58;102656.67;;;0.17;73.86
67987;BME280;54767;53.800;15.956;2023-01-24T05:08:27;102658.91;;;0.18;73.88
67987;BME280;54767;53.800;15.956;2023-01-24T05:10:55;102669.30;;;0.18;73.55
67987;BME280;54767;53.800;15.956;2023-01-24T05:13:28;102678.02;;;0.21;73.85
67987;BME280;54767;53.800;15.956;2023-01-24T05:15:56;102678.88;;;0.24;73.73
67987;BME280;54767;53.800;15.956;2023-01-24T05:18:24;102681.00;;;0.27;73.75
67987;BME280;54767;53.800;15.956;2023-01-24T05:20:52;102688.02;;;0.30;73.51
67987;BME280;54767;53.800;15.956;2023-01-24T05:23:21;102687.19;;;0.31;73.43
67987;BME280;54767;53.800;15.956;2023-01-24T05:25:49;102685.61;;;0.32;73.46
67987;BME280;54767;53.800;15.956;2023-01-24T05:28:17;102684.73;;;0.34;73.76
67987;BME280;54767;53.800;15.956;2023-01-24T05:30:46;102677.63;;;0.36;73.57
67987;BME280;54767;53.800;15.956;2023-01-24T05:33:14;102682.25;;;0.35;73.50
67987;BME280;54767;53.800;15.956;2023-01-24T05:35:42;102686.30;;;0.32;73.15
67987;BME280;54767;53.800;15.956;2023-01-24T05:38:14;102688.93;;;0.31;73.47
67987;BME280;54767;53.800;15.956;2023-01-24T05:40:43;102693.98;;;0.33;73.80
67987;BME280;54767;53.800;15.956;2023-01-24T05:43:11;102694.89;;;0.38;73.86
67987;BME280;54767;53.800;15.956;2023-01-24T05:45:39;102697.94;;;0.39;73.63
67987;BME280;54767;53.800;15.956;2023-01-24T05:48:07;102702.60;;;0.36;73.16
67987;BME280;54767;53.800;15.956;2023-01-24T05:50:37;102705.25;;;0.28;73.42
67987;BME280;54767;53.800;15.956;2023-01-24T05:53:06;102712.58;;;0.21;73.33
67987;BME280;54767;53.800;15.956;2023-01-24T05:55:34;102707.43;;;0.17;73.72
67987;BME280;54767;53.800;15.956;2023-01-24T05:58:02;102706.48;;;0.16;74.04
67987;BME280;54767;53.800;15.956;2023-01-24T06:00:31;102711.13;;;0.18;73.99
67987;BME280;54767;53.800;15.956;2023-01-24T06:03:02;102721.41;;;0.21;73.63
67987;BME280;54767;53.800;15.956;2023-01-24T06:05:31;102711.79;;;0.26;74.27
67987;BME280;54767;53.800;15.956;2023-01-24T06:07:59;102708.94;;;0.31;73.86
67987;BME280;54767;53.800;15.956;2023-01-24T06:10:27;102706.06;;;0.32;73.46
67987;BME280;54767;53.800;15.956;2023-01-24T06:12:59;102706.73;;;0.30;73.40
67987;BME280;54767;53.800;15.956;2023-01-24T06:15:28;102706.44;;;0.26;73.72
67987;BME280;54767;53.800;15.956;2023-01-24T06:17:56;102706.13;;;0.24;73.73
67987;BME280;54767;53.800;15.956;2023-01-24T06:20:24;102709.37;;;0.24;73.76
67987;BME280;54767;53.800;15.956;2023-01-24T06:23:02;102707.52;;;0.25;73.93
67987;BME280;54767;53.800;15.956;2023-01-24T06:25:32;102704.54;;;0.28;74.00
67987;BME280;54767;53.800;15.956;2023-01-24T06:28:00;102707.84;;;0.32;74.03
67987;BME280;54767;53.800;15.956;2023-01-24T06:30:29;102716.14;;;0.37;74.21
67987;BME280;54767;53.800;15.956;2023-01-24T06:33:25;102714.45;;;0.41;73.95
67987;BME280;54767;53.800;15.956;2023-01-24T06:38:34;102714.84;;;0.48;73.75
67987;BME280;54767;53.800;15.956;2023-01-24T06:41:14;102720.50;;;0.48;73.79
67987;BME280;54767;53.800;15.956;2023-01-24T06:43:44;102723.59;;;0.48;73.72
67987;BME280;54767;53.800;15.956;2023-01-24T06:46:13;102723.23;;;0.48;73.99
67987;BME280;54767;53.800;15.956;2023-01-24T06:48:43;102724.95;;;0.48;73.57
67987;BME280;54767;53.800;15.956;2023-01-24T06:51:12;102720.38;;;0.49;73.43
67987;BME280;54767;53.800;15.956;2023-01-24T06:53:42;102717.88;;;0.52;73.81
67987;BME280;54767;53.800;15.956;2023-01-24T06:56:10;102718.27;;;0.54;74.03
67987;BME280;54767;53.800;15.956;2023-01-24T06:58:39;102719.91;;;0.58;74.01
67987;BME280;54767;53.800;15.956;2023-01-24T07:01:07;102715.95;;;0.60;74.11
67987;BME280;54767;53.800;15.956;2023-01-24T07:03:35;102714.14;;;0.61;73.87
67987;BME280;54767;53.800;15.956;2023-01-24T07:06:04;102712.01;;;0.60;73.91
67987;BME280;54767;53.800;15.956;2023-01-24T07:08:32;102714.05;;;0.60;73.98
67987;BME280;54767;53.800;15.956;2023-01-24T07:11:01;102721.19;;;0.58;74.04
67987;BME280;54767;53.800;15.956;2023-01-24T07:13:29;102718.66;;;0.59;74.06
67987;BME280;54767;53.800;15.956;2023-01-24T07:16:01;102721.52;;;0.60;73.86
67987;BME280;54767;53.800;15.956;2023-01-24T07:18:30;102722.23;;;0.63;73.89
67987;BME280;54767;53.800;15.956;2023-01-24T07:20:58;102721.48;;;0.66;74.05
67987;BME280;54767;53.800;15.956;2023-01-24T07:23:27;102721.98;;;0.68;73.69
67987;BME280;54767;53.800;15.956;2023-01-24T07:26:01;102724.85;;;0.67;73.69
67987;BME280;54767;53.800;15.956;2023-01-24T07:28:31;102734.96;;;0.69;73.62
67987;BME280;54767;53.800;15.956;2023-01-24T07:30:59;102747.06;;;0.69;73.95
67987;BME280;54767;53.800;15.956;2023-01-24T07:33:28;102749.40;;;0.70;73.74
67987;BME280;54767;53.800;15.956;2023-01-24T07:35:56;102749.64;;;0.69;73.73
67987;BME280;54767;53.800;15.956;2023-01-24T07:38:25;102757.42;;;0.67;73.54
67987;BME280;54767;53.800;15.956;2023-01-24T07:40:53;102759.02;;;0.68;73.74
67987;BME280;54767;53.800;15.956;2023-01-24T07:43:21;102762.01;;;0.71;73.80
67987;BME280;54767;53.800;15.956;2023-01-24T07:45:49;102762.60;;;0.74;73.91
67987;BME280;54767;53.800;15.956;2023-01-24T07:48:20;102759.87;;;0.76;73.83
67987;BME280;54767;53.800;15.956;2023-01-24T07:50:48;102760.42;;;0.78;73.92
67987;BME280;54767;53.800;15.956;2023-01-24T07:53:16;102761.36;;;0.80;73.92
67987;BME280;54767;53.800;15.956;2023-01-24T07:55:44;102762.06;;;0.80;73.85
67987;BME280;54767;53.800;15.956;2023-01-24T07:58:29;102767.36;;;0.79;73.48
67987;BME280;54767;53.800;15.956;2023-01-24T08:00:58;102767.73;;;0.77;73.96
67987;BME280;54767;53.800;15.956;2023-01-24T08:03:27;102775.35;;;0.78;73.65
67987;BME280;54767;53.800;15.956;2023-01-24T08:05:55;102777.77;;;0.80;73.33
67987;BME280;54767;53.800;15.956;2023-01-24T08:08:24;102773.98;;;0.82;73.60
67987;BME280;54767;53.800;15.956;2023-01-24T08:10:52;102778.19;;;0.85;73.65
67987;BME280;54767;53.800;15.956;2023-01-24T08:13:20;102787.23;;;0.88;73.56
67987;BME280;54767;53.800;15.956;2023-01-24T08:15:50;102792.45;;;0.88;73.68
67987;BME280;54767;53.800;15.956;2023-01-24T08:18:19;102787.77;;;0.86;73.43
67987;BME280;54767;53.800;15.956;2023-01-24T08:20:47;102792.02;;;0.85;73.41
67987;BME280;54767;53.800;15.956;2023-01-24T08:23:16;102789.58;;;0.83;73.47
67987;BME280;54767;53.800;15.956;2023-01-24T08:25:45;102793.39;;;0.81;73.27
67987;BME280;54767;53.800;15.956;2023-01-24T08:28:13;102795.20;;;0.80;73.60
67987;BME280;54767;53.800;15.956;2023-01-24T08:30:41;102791.42;;;0.82;73.78
67987;BME280;54767;53.800;15.956;2023-01-24T08:33:10;102794.04;;;0.87;73.77
67987;BME280;54767;53.800;15.956;2023-01-24T08:35:46;102791.83;;;0.92;73.78
67987;BME280;54767;53.800;15.956;2023-01-24T08:38:15;102791.77;;;0.95;73.69
67987;BME280;54767;53.800;15.956;2023-01-24T08:40:43;102798.48;;;0.95;73.64
67987;BME280;54767;53.800;15.956;2023-01-24T08:43:17;102807.32;;;0.94;73.74
67987;BME280;54767;53.800;15.956;2023-01-24T08:45:45;102811.70;;;0.93;73.60
67987;BME280;54767;53.800;15.956;2023-01-24T08:48:14;102812.38;;;0.90;73.68
67987;BME280;54767;53.800;15.956;2023-01-24T08:50:42;102817.10;;;0.88;73.78
67987;BME280;54767;53.800;15.956;2023-01-24T08:53:12;102815.30;;;0.87;73.72
67987;BME280;54767;53.800;15.956;2023-01-24T08:55:40;102815.70;;;0.86;73.64
67987;BME280;54767;53.800;15.956;2023-01-24T08:58:09;102815.33;;;0.88;73.79
67987;BME280;54767;53.800;15.956;2023-01-24T09:00:37;102818.91;;;0.90;73.54
67987;BME280;54767;53.800;15.956;2023-01-24T09:03:05;102820.85;;;0.93;73.70
67987;BME280;54767;53.800;15.956;2023-01-24T09:05:34;102824.66;;;0.93;73.21
67987;BME280;54767;53.800;15.956;2023-01-24T09:08:02;102829.48;;;0.90;73.26
67987;BME280;54767;53.800;15.956;2023-01-24T09:10:31;102826.21;;;0.88;73.15
67987;BME280;54767;53.800;15.956;2023-01-24T09:13:00;102828.77;;;0.86;73.39
67987;BME280;54767;53.800;15.956;2023-01-24T09:15:29;102830.03;;;0.84;73.74
67987;BME280;54767;53.800;15.956;2023-01-24T09:18:00;102831.09;;;0.83;73.45
67987;BME280;54767;53.800;15.956;2023-01-24T09:20:30;102830.77;;;0.81;72.84
67987;BME280;54767;53.800;15.956;2023-01-24T09:22:58;102825.63;;;0.79;72.99
67987;BME280;54767;53.800;15.956;2023-01-24T09:25:27;102823.53;;;0.83;73.20
67987;BME280;54767;53.800;15.956;2023-01-24T09:27:58;102822.27;;;0.84;73.51
67987;BME280;54767;53.800;15.956;2023-01-24T09:30:26;102821.36;;;0.86;73.55
67987;BME280;54767;53.800;15.956;2023-01-24T09:32:56;102815.48;;;0.88;73.64
67987;BME280;54767;53.800;15.956;2023-01-24T09:35:24;102810.05;;;0.89;73.51
67987;BME280;54767;53.800;15.956;2023-01-24T09:37:52;102811.75;;;0.91;73.66
67987;BME280;54767;53.800;15.956;2023-01-24T09:40:25;102810.71;;;0.91;73.51
67987;BME280;54767;53.800;15.956;2023-01-24T09:43:04;102808.41;;;0.93;73.55
67987;BME280;54767;53.800;15.956;2023-01-24T09:46:00;102805.92;;;0.97;73.70
67987;BME280;54767;53.800;15.956;2023-01-24T09:48:33;102803.98;;;1.03;73.43
67987;BME280;54767;53.800;15.956;2023-01-24T09:51:06;102809.35;;;1.07;73.48
67987;BME280;54767;53.800;15.956;2023-01-24T09:53:44;102808.81;;;1.12;73.22
67987;BME280;54767;53.800;15.956;2023-01-24T09:56:26;102803.37;;;1.15;73.50
67987;BME280;54767;53.800;15.956;2023-01-24T09:59:52;102805.45;;;1.17;73.32
67987;BME280;54767;53.800;15.956;2023-01-24T10:02:17;102807.83;;;1.17;73.45
67987;BME280;54767;53.800;15.956;2023-01-24T10:04:48;102799.86;;;1.16;73.34
67987;BME280;54767;53.800;15.956;2023-01-24T10:07:25;102797.81;;;1.17;73.28
67987;BME280;54767;53.800;15.956;2023-01-24T10:16:13;102777.83;;;1.25;73.32
67987;BME280;54767;53.800;15.956;2023-01-24T10:19:10;102772.77;;;1.27;72.95
67987;BME280;54767;53.800;15.956;2023-01-24T10:24:41;102769.38;;;1.23;73.11
67987;BME280;54767;53.800;15.956;2023-01-24T10:27:41;102765.88;;;1.18;72.66
67987;BME280;54767;53.800;15.956;2023-01-24T10:30:15;102765.50;;;1.13;72.84
67987;BME280;54767;53.800;15.956;2023-01-24T10:32:47;102760.44;;;1.11;72.74
67987;BME280;54767;53.800;15.956;2023-01-24T10:35:21;102760.92;;;1.10;72.97
67987;BME280;54767;53.800;15.956;2023-01-24T10:37:56;102765.63;;;1.10;73.08
67987;BME280;54767;53.800;15.956;2023-01-24T10:40:26;102762.71;;;1.13;72.96
67987;BME280;54767;53.800;15.956;2023-01-24T10:42:55;102762.83;;;1.17;73.18
67987;BME280;54767;53.800;15.956;2023-01-24T10:48:19;102759.53;;;1.19;72.78
67987;BME280;54767;53.800;15.956;2023-01-24T10:50:52;102766.61;;;1.19;72.81
67987;BME280;54767;53.800;15.956;2023-01-24T10:53:25;102774.54;;;1.17;73.03
67987;BME280;54767;53.800;15.956;2023-01-24T10:56:01;102781.98;;;1.15;72.82
67987;BME280;54767;53.800;15.956;2023-01-24T10:58:42;102782.13;;;1.15;72.85
67987;BME280;54767;53.800;15.956;2023-01-24T11:01:18;102772.44;;;1.16;72.91
67987;BME280;54767;53.800;15.956;2023-01-24T11:03:49;102765.25;;;1.19;73.01
67987;BME280;54767;53.800;15.956;2023-01-24T11:06:27;102768.02;;;1.24;72.94
67987;BME280;54767;53.800;15.956;2023-01-24T11:09:12;102768.52;;;1.28;72.95
67987;BME280;54767;53.800;15.956;2023-01-24T11:11:47;102764.33;;;1.31;72.72
67987;BME280;54767;53.800;15.956;2023-01-24T11:16:53;102758.38;;;1.34;73.05
67987;BME280;54767;53.800;15.956;2023-01-24T11:19:25;102749.45;;;1.35;72.83
67987;BME280;54767;53.800;15.956;2023-01-24T11:21:59;102747.25;;;1.35;72.75
67987;BME280;54767;53.800;15.956;2023-01-24T11:24:29;102746.45;;;1.36;72.85
67987;BME280;54767;53.800;15.956;2023-01-24T11:27:04;102745.27;;;1.37;72.60
67987;BME280;54767;53.800;15.956;2023-01-24T11:29:33;102739.15;;;1.35;72.65
67987;BME280;54767;53.800;15.956;2023-01-24T11:35:20;102729.52;;;1.41;72.46
67987;BME280;54767;53.800;15.956;2023-01-24T11:40:45;102724.44;;;1.42;72.31
67987;BME280;54767;53.800;15.956;2023-01-24T11:44:05;102726.88;;;1.40;71.85
67987;BME280;54767;53.800;15.956;2023-01-24T11:46:59;102728.98;;;1.29;71.48
67987;BME280;54767;53.800;15.956;2023-01-24T11:54:57;102739.72;;;1.10;71.64
67987;BME280;54767;53.800;15.956;2023-01-24T12:00:27;102734.59;;;0.94;71.27
67987;BME280;54767;53.800;15.956;2023-01-24T12:11:41;102702.40;;;1.03;72.42
67987;BME280;54767;53.800;15.956;2023-01-24T12:23:09;102691.09;;;1.00;72.25
67987;BME280;54767;53.800;15.956;2023-01-24T12:25:43;102695.00;;;1.03;72.42
67987;BME280;54767;53.800;15.956;2023-01-24T12:28:21;102694.18;;;1.08;72.43
67987;BME280;54767;53.800;15.956;2023-01-24T12:30:57;102687.77;;;1.14;72.31
67987;BME280;54767;53.800;15.956;2023-01-24T12:33:56;102686.16;;;1.18;72.43
67987;BME280;54767;53.800;15.956;2023-01-24T12:36:41;102687.56;;;1.20;72.49
67987;BME280;54767;53.800;15.956;2023-01-24T12:39:19;102690.33;;;1.23;72.30
67987;BME280;54767;53.800;15.956;2023-01-24T12:42:23;102690.23;;;1.23;72.26
67987;BME280;54767;53.800;15.956;2023-01-24T12:44:54;102692.48;;;1.24;72.18
67987;BME280;54767;53.800;15.956;2023-01-24T12:47:32;102686.75;;;1.25;72.49
67987;BME280;54767;53.800;15.956;2023-01-24T12:58:23;102670.13;;;1.29;72.14
67987;BME280;54767;53.800;15.956;2023-01-24T13:03:56;102671.57;;;1.32;72.18
67987;BME280;54767;53.800;15.956;2023-01-24T13:11:49;102665.35;;;1.23;72.37
67987;BME280;54767;53.800;15.956;2023-01-24T13:19:35;102667.83;;;1.26;72.40
67987;BME280;54767;53.800;15.956;2023-01-24T13:33:34;102659.83;;;1.25;71.90
67987;BME280;54767;53.800;15.956;2023-01-24T13:36:06;102655.75;;;1.24;71.94
67987;BME280;54767;53.800;15.956;2023-01-24T13:38:42;102657.20;;;1.25;72.27
67987;BME280;54767;53.800;15.956;2023-01-24T13:41:15;102657.34;;;1.26;72.34
67987;BME280;54767;53.800;15.956;2023-01-24T13:46:15;102660.56;;;1.25;72.39
67987;BME280;54767;53.800;15.956;2023-01-24T13:48:46;102661.58;;;1.28;72.37
67987;BME280;54767;53.800;15.956;2023-01-24T13:54:15;102662.30;;;1.28;71.93
67987;BME280;54767;53.800;15.956;2023-01-24T13:57:29;102667.26;;;1.25;71.69
67987;BME280;54767;53.800;15.956;2023-01-24T14:08:44;102647.70;;;1.16;71.46
67987;BME280;54767;53.800;15.956;2023-01-24T14:21:49;102656.86;;;1.21;72.10
67987;BME280;54767;53.800;15.956;2023-01-24T14:24:55;102656.34;;;1.23;72.03
67987;BME280;54767;53.800;15.956;2023-01-24T14:27:32;102653.98;;;1.25;72.04
67987;BME280;54767;53.800;15.956;2023-01-24T14:32:52;102658.98;;;1.25;71.98
67987;BME280;54767;53.800;15.956;2023-01-24T14:38:11;102659.66;;;1.17;72.04
67987;BME280;54767;53.800;15.956;2023-01-24T14:40:42;102652.08;;;1.12;71.96
67987;BME280;54767;53.800;15.956;2023-01-24T14:43:13;102649.55;;;1.10;71.69
67987;BME280;54767;53.800;15.956;2023-01-24T14:45:41;102650.90;;;1.10;72.13
67987;BME280;54767;53.800;15.956;2023-01-24T14:48:22;102645.73;;;1.12;72.36
67987;BME280;54767;53.800;15.956;2023-01-24T14:51:18;102644.63;;;1.16;72.16
67987;BME280;54767;53.800;15.956;2023-01-24T14:53:51;102643.61;;;1.19;72.12
67987;BME280;54767;53.800;15.956;2023-01-24T14:56:21;102636.64;;;1.20;71.78
67987;BME280;54767;53.800;15.956;2023-01-24T14:58:50;102634.20;;;1.20;71.62
67987;BME280;54767;53.800;15.956;2023-01-24T15:01:28;102632.02;;;1.18;71.91
67987;BME280;54767;53.800;15.956;2023-01-24T15:03:59;102635.02;;;1.19;72.12
67987;BME280;54767;53.800;15.956;2023-01-24T15:06:28;102637.63;;;1.19;72.21
67987;BME280;54767;53.800;15.956;2023-01-24T15:08:59;102639.70;;;1.19;72.13
67987;BME280;54767;53.800;15.956;2023-01-24T15:11:31;102640.77;;;1.20;72.13
67987;BME280;54767;53.800;15.956;2023-01-24T15:14:05;102645.36;;;1.21;72.45
67987;BME280;54767;53.800;15.956;2023-01-24T15:16:37;102641.95;;;1.22;72.07
67987;BME280;54767;53.800;15.956;2023-01-24T15:19:22;102644.39;;;1.22;72.06